Terminal Aerodrome Forecast
Issued by NWS Cleveland, OH

Home | Current Version | Previous Version | Graphics & Text | Print | Product List | Glossary Off
Versions: 1 2 3 4 5 6 7 8 9 10 11 12 13 14 15 16 17 18 19

000
FTUS41 KCLE 230500
TAFCAK
TAF
KCAK 230526Z 2306/2406 21012KT P6SM VCSH OVC045
     FM230900 21010KT 6SM -SHRA OVC035
     FM231500 18012G20KT P6SM OVC035
     FM240100 13015G25KT 5SM -SHRA SCT008 OVC018=

USA.gov is the U.S. government's official web portal to all federal, state and local government web resources and services.